sensor_id;sensor_type;location;lat;lon;timestamp;P1;durP1;ratioP1;P2;durP2;ratioP2
22567;SDS011;11450;50.818;4.382;2022-08-01T00:01:55;2.25;;;1.40;;
22567;SDS011;11450;50.818;4.382;2022-08-01T00:04:20;4.10;;;1.67;;
22567;SDS011;11450;50.818;4.382;2022-08-01T00:06:46;4.43;;;1.55;;
22567;SDS011;11450;50.818;4.382;2022-08-01T00:09:12;2.67;;;1.50;;
22567;SDS011;11450;50.818;4.382;2022-08-01T00:11:38;4.53;;;1.55;;
22567;SDS011;11450;50.818;4.382;2022-08-01T00:14:03;2.75;;;1.30;;
22567;SDS011;11450;50.818;4.382;2022-08-01T00:16:29;5.35;;;1.60;;
22567;SDS011;11450;50.818;4.382;2022-08-01T00:18:55;2.70;;;1.60;;
22567;SDS011;11450;50.818;4.382;2022-08-01T00:21:21;2.10;;;1.60;;
22567;SDS011;11450;50.818;4.382;2022-08-01T00:23:47;3.00;;;1.60;;
22567;SDS011;11450;50.818;4.382;2022-08-01T00:26:13;2.72;;;1.50;;
22567;SDS011;11450;50.818;4.382;2022-08-01T00:28:39;4.80;;;1.92;;
22567;SDS011;11450;50.818;4.382;2022-08-01T00:31:05;4.03;;;1.60;;
22567;SDS011;11450;50.818;4.382;2022-08-01T00:33:31;5.25;;;2.35;;
22567;SDS011;11450;50.818;4.382;2022-08-01T00:35:56;3.75;;;1.95;;
22567;SDS011;11450;50.818;4.382;2022-08-01T00:38:22;4.35;;;2.00;;
22567;SDS011;11450;50.818;4.382;2022-08-01T00:40:48;3.53;;;2.10;;
22567;SDS011;11450;50.818;4.382;2022-08-01T00:43:14;3.95;;;2.20;;
22567;SDS011;11450;50.818;4.382;2022-08-01T00:45:40;6.80;;;2.47;;
22567;SDS011;11450;50.818;4.382;2022-08-01T00:48:06;2.53;;;2.33;;
22567;SDS011;11450;50.818;4.382;2022-08-01T00:50:32;5.55;;;2.33;;
22567;SDS011;11450;50.818;4.382;2022-08-01T00:52:58;5.38;;;2.40;;
22567;SDS011;11450;50.818;4.382;2022-08-01T00:55:25;4.78;;;2.30;;
22567;SDS011;11450;50.818;4.382;2022-08-01T00:57:56;5.80;;;2.13;;
22567;SDS011;11450;50.818;4.382;2022-08-01T01:00:22;5.28;;;2.15;;
22567;SDS011;11450;50.818;4.382;2022-08-01T01:02:47;4.65;;;2.47;;
22567;SDS011;11450;50.818;4.382;2022-08-01T01:05:13;3.80;;;2.20;;
22567;SDS011;11450;50.818;4.382;2022-08-01T01:15:51;5.00;;;2.30;;
22567;SDS011;11450;50.818;4.382;2022-08-01T01:18:24;5.40;;;2.10;;
22567;SDS011;11450;50.818;4.382;2022-08-01T01:21:13;4.57;;;2.10;;
22567;SDS011;11450;50.818;4.382;2022-08-01T01:26:54;4.72;;;2.85;;
22567;SDS011;11450;50.818;4.382;2022-08-01T01:29:42;3.20;;;2.25;;
22567;SDS011;11450;50.818;4.382;2022-08-01T01:32:14;2.97;;;2.28;;
22567;SDS011;11450;50.818;4.382;2022-08-01T01:34:42;3.55;;;2.35;;
22567;SDS011;11450;50.818;4.382;2022-08-01T01:37:11;7.72;;;3.17;;
22567;SDS011;11450;50.818;4.382;2022-08-01T01:39:40;4.65;;;3.28;;
22567;SDS011;11450;50.818;4.382;2022-08-01T01:42:07;4.50;;;2.83;;
22567;SDS011;11450;50.818;4.382;2022-08-01T01:44:34;4.50;;;2.25;;
22567;SDS011;11450;50.818;4.382;2022-08-01T01:47:02;3.72;;;2.35;;
22567;SDS011;11450;50.818;4.382;2022-08-01T01:49:29;5.53;;;3.30;;
22567;SDS011;11450;50.818;4.382;2022-08-01T01:51:57;4.93;;;3.28;;
22567;SDS011;11450;50.818;4.382;2022-08-01T01:54:28;6.97;;;4.00;;
22567;SDS011;11450;50.818;4.382;2022-08-01T01:56:57;6.88;;;4.30;;
22567;SDS011;11450;50.818;4.382;2022-08-01T01:59:25;9.15;;;6.00;;
22567;SDS011;11450;50.818;4.382;2022-08-01T02:01:54;8.80;;;4.72;;
22567;SDS011;11450;50.818;4.382;2022-08-01T02:04:23;10.63;;;5.82;;
22567;SDS011;11450;50.818;4.382;2022-08-01T02:06:50;10.18;;;5.90;;
22567;SDS011;11450;50.818;4.382;2022-08-01T02:09:17;13.52;;;6.53;;
22567;SDS011;11450;50.818;4.382;2022-08-01T02:11:49;10.88;;;5.55;;
22567;SDS011;11450;50.818;4.382;2022-08-01T02:14:15;10.18;;;5.22;;
22567;SDS011;11450;50.818;4.382;2022-08-01T02:16:44;10.23;;;6.50;;
22567;SDS011;11450;50.818;4.382;2022-08-01T02:19:12;9.60;;;5.75;;
22567;SDS011;11450;50.818;4.382;2022-08-01T02:21:47;9.65;;;5.22;;
22567;SDS011;11450;50.818;4.382;2022-08-01T02:24:24;11.80;;;5.80;;
22567;SDS011;11450;50.818;4.382;2022-08-01T02:27:12;9.95;;;6.03;;
22567;SDS011;11450;50.818;4.382;2022-08-01T02:32:23;9.73;;;6.90;;
22567;SDS011;11450;50.818;4.382;2022-08-01T02:34:57;12.20;;;6.03;;
22567;SDS011;11450;50.818;4.382;2022-08-01T02:37:26;12.57;;;7.10;;
22567;SDS011;11450;50.818;4.382;2022-08-01T02:39:54;12.45;;;7.20;;
22567;SDS011;11450;50.818;4.382;2022-08-01T02:42:20;13.68;;;7.40;;
22567;SDS011;11450;50.818;4.382;2022-08-01T02:44:49;12.75;;;7.38;;
22567;SDS011;11450;50.818;4.382;2022-08-01T02:47:17;14.25;;;7.38;;
22567;SDS011;11450;50.818;4.382;2022-08-01T02:49:46;12.40;;;6.47;;
22567;SDS011;11450;50.818;4.382;2022-08-01T02:52:14;14.25;;;8.15;;
22567;SDS011;11450;50.818;4.382;2022-08-01T02:54:41;14.50;;;6.50;;
22567;SDS011;11450;50.818;4.382;2022-08-01T02:57:10;12.73;;;6.68;;
22567;SDS011;11450;50.818;4.382;2022-08-01T02:59:39;14.57;;;7.45;;
22567;SDS011;11450;50.818;4.382;2022-08-01T03:02:07;12.52;;;7.82;;
22567;SDS011;11450;50.818;4.382;2022-08-01T03:04:35;13.07;;;7.40;;
22567;SDS011;11450;50.818;4.382;2022-08-01T03:07:02;15.98;;;7.63;;
22567;SDS011;11450;50.818;4.382;2022-08-01T03:09:30;14.57;;;7.40;;
22567;SDS011;11450;50.818;4.382;2022-08-01T03:11:59;14.77;;;8.13;;
22567;SDS011;11450;50.818;4.382;2022-08-01T03:14:27;13.93;;;8.05;;
22567;SDS011;11450;50.818;4.382;2022-08-01T03:16:55;13.43;;;7.55;;
22567;SDS011;11450;50.818;4.382;2022-08-01T03:19:23;13.50;;;7.63;;
22567;SDS011;11450;50.818;4.382;2022-08-01T03:21:51;16.20;;;8.60;;
22567;SDS011;11450;50.818;4.382;2022-08-01T03:24:17;14.88;;;8.63;;
22567;SDS011;11450;50.818;4.382;2022-08-01T03:26:44;13.98;;;7.63;;
22567;SDS011;11450;50.818;4.382;2022-08-01T03:29:16;16.50;;;7.93;;
22567;SDS011;11450;50.818;4.382;2022-08-01T03:31:45;11.40;;;8.25;;
22567;SDS011;11450;50.818;4.382;2022-08-01T03:34:12;14.15;;;9.13;;
22567;SDS011;11450;50.818;4.382;2022-08-01T03:36:46;16.45;;;8.75;;
22567;SDS011;11450;50.818;4.382;2022-08-01T03:39:14;13.32;;;8.65;;
22567;SDS011;11450;50.818;4.382;2022-08-01T03:41:43;15.15;;;8.32;;
22567;SDS011;11450;50.818;4.382;2022-08-01T03:44:16;18.35;;;8.75;;
22567;SDS011;11450;50.818;4.382;2022-08-01T03:47:04;12.55;;;8.68;;
22567;SDS011;11450;50.818;4.382;2022-08-01T03:49:34;15.88;;;8.32;;
22567;SDS011;11450;50.818;4.382;2022-08-01T03:52:03;14.75;;;7.88;;
22567;SDS011;11450;50.818;4.382;2022-08-01T03:54:32;11.85;;;7.75;;
22567;SDS011;11450;50.818;4.382;2022-08-01T03:57:00;13.88;;;8.70;;
22567;SDS011;11450;50.818;4.382;2022-08-01T03:59:26;12.35;;;7.50;;
22567;SDS011;11450;50.818;4.382;2022-08-01T04:01:53;14.98;;;8.20;;
22567;SDS011;11450;50.818;4.382;2022-08-01T04:04:21;14.93;;;8.40;;
22567;SDS011;11450;50.818;4.382;2022-08-01T04:06:47;16.98;;;8.85;;
22567;SDS011;11450;50.818;4.382;2022-08-01T04:09:16;17.20;;;9.30;;
22567;SDS011;11450;50.818;4.382;2022-08-01T04:11:42;19.15;;;9.52;;
22567;SDS011;11450;50.818;4.382;2022-08-01T04:14:08;13.85;;;8.75;;
22567;SDS011;11450;50.818;4.382;2022-08-01T04:16:36;12.93;;;8.40;;
22567;SDS011;11450;50.818;4.382;2022-08-01T04:19:02;17.23;;;9.50;;
22567;SDS011;11450;50.818;4.382;2022-08-01T04:21:29;15.05;;;9.40;;
22567;SDS011;11450;50.818;4.382;2022-08-01T04:23:59;14.52;;;8.27;;
22567;SDS011;11450;50.818;4.382;2022-08-01T04:26:29;12.52;;;9.15;;
22567;SDS011;11450;50.818;4.382;2022-08-01T04:28:57;11.10;;;7.70;;
22567;SDS011;11450;50.818;4.382;2022-08-01T04:31:25;8.77;;;7.50;;
22567;SDS011;11450;50.818;4.382;2022-08-01T04:33:53;10.75;;;7.40;;
22567;SDS011;11450;50.818;4.382;2022-08-01T04:36:20;9.45;;;7.93;;
22567;SDS011;11450;50.818;4.382;2022-08-01T04:38:48;9.70;;;8.15;;
22567;SDS011;11450;50.818;4.382;2022-08-01T04:41:18;11.45;;;8.98;;
22567;SDS011;11450;50.818;4.382;2022-08-01T04:43:45;11.30;;;8.57;;
22567;SDS011;11450;50.818;4.382;2022-08-01T04:46:11;9.85;;;7.95;;
22567;SDS011;11450;50.818;4.382;2022-08-01T04:48:39;10.50;;;7.45;;
22567;SDS011;11450;50.818;4.382;2022-08-01T04:51:11;8.80;;;7.90;;
22567;SDS011;11450;50.818;4.382;2022-08-01T04:53:40;8.43;;;6.85;;
22567;SDS011;11450;50.818;4.382;2022-08-01T04:56:06;11.55;;;9.40;;
22567;SDS011;11450;50.818;4.382;2022-08-01T04:58:32;7.40;;;6.40;;
22567;SDS011;11450;50.818;4.382;2022-08-01T05:00:57;10.90;;;7.15;;
22567;SDS011;11450;50.818;4.382;2022-08-01T05:03:23;10.90;;;9.15;;
22567;SDS011;11450;50.818;4.382;2022-08-01T05:05:49;8.18;;;7.00;;
22567;SDS011;11450;50.818;4.382;2022-08-01T05:08:14;11.73;;;9.55;;
22567;SDS011;11450;50.818;4.382;2022-08-01T05:10:41;15.10;;;11.45;;
22567;SDS011;11450;50.818;4.382;2022-08-01T05:13:07;14.50;;;10.45;;
22567;SDS011;11450;50.818;4.382;2022-08-01T05:15:34;12.95;;;10.05;;
22567;SDS011;11450;50.818;4.382;2022-08-01T05:18:01;13.98;;;10.32;;
22567;SDS011;11450;50.818;4.382;2022-08-01T05:20:27;11.32;;;8.07;;
22567;SDS011;11450;50.818;4.382;2022-08-01T05:22:52;14.80;;;10.02;;
22567;SDS011;11450;50.818;4.382;2022-08-01T05:25:18;17.08;;;9.35;;
22567;SDS011;11450;50.818;4.382;2022-08-01T05:27:44;14.18;;;9.70;;
22567;SDS011;11450;50.818;4.382;2022-08-01T05:30:09;14.40;;;9.73;;
22567;SDS011;11450;50.818;4.382;2022-08-01T05:32:35;12.68;;;8.35;;
22567;SDS011;11450;50.818;4.382;2022-08-01T05:35:02;10.50;;;8.48;;
22567;SDS011;11450;50.818;4.382;2022-08-01T05:37:28;10.68;;;8.20;;
22567;SDS011;11450;50.818;4.382;2022-08-01T05:39:54;13.93;;;9.55;;
22567;SDS011;11450;50.818;4.382;2022-08-01T05:42:19;11.52;;;9.65;;
22567;SDS011;11450;50.818;4.382;2022-08-01T05:44:45;10.52;;;8.82;;
22567;SDS011;11450;50.818;4.382;2022-08-01T05:47:11;12.45;;;8.07;;
22567;SDS011;11450;50.818;4.382;2022-08-01T05:49:36;9.18;;;7.25;;
22567;SDS011;11450;50.818;4.382;2022-08-01T05:52:02;7.93;;;6.60;;
22567;SDS011;11450;50.818;4.382;2022-08-01T05:54:27;8.27;;;7.07;;
22567;SDS011;11450;50.818;4.382;2022-08-01T05:56:53;5.93;;;5.18;;
22567;SDS011;11450;50.818;4.382;2022-08-01T05:59:24;8.80;;;5.90;;
22567;SDS011;11450;50.818;4.382;2022-08-01T06:01:50;6.63;;;5.93;;
22567;SDS011;11450;50.818;4.382;2022-08-01T06:04:16;6.78;;;5.55;;
22567;SDS011;11450;50.818;4.382;2022-08-01T06:06:41;6.43;;;5.32;;
22567;SDS011;11450;50.818;4.382;2022-08-01T06:09:07;5.97;;;5.45;;
22567;SDS011;11450;50.818;4.382;2022-08-01T06:11:32;7.60;;;5.80;;
22567;SDS011;11450;50.818;4.382;2022-08-01T06:13:58;6.85;;;5.60;;
22567;SDS011;11450;50.818;4.382;2022-08-01T06:16:23;7.28;;;6.53;;
22567;SDS011;11450;50.818;4.382;2022-08-01T06:18:49;8.15;;;6.07;;
22567;SDS011;11450;50.818;4.382;2022-08-01T06:21:15;8.75;;;5.57;;
22567;SDS011;11450;50.818;4.382;2022-08-01T06:23:40;5.00;;;4.50;;
22567;SDS011;11450;50.818;4.382;2022-08-01T06:26:07;7.18;;;4.13;;
22567;SDS011;11450;50.818;4.382;2022-08-01T06:28:33;5.25;;;4.38;;
22567;SDS011;11450;50.818;4.382;2022-08-01T06:30:58;4.88;;;4.47;;
22567;SDS011;11450;50.818;4.382;2022-08-01T06:33:24;6.47;;;4.70;;
22567;SDS011;11450;50.818;4.382;2022-08-01T06:35:51;5.20;;;4.70;;
22567;SDS011;11450;50.818;4.382;2022-08-01T06:38:17;6.47;;;5.20;;
22567;SDS011;11450;50.818;4.382;2022-08-01T06:40:42;5.97;;;5.38;;
22567;SDS011;11450;50.818;4.382;2022-08-01T06:43:08;8.15;;;5.60;;
22567;SDS011;11450;50.818;4.382;2022-08-01T06:45:35;7.82;;;4.97;;
22567;SDS011;11450;50.818;4.382;2022-08-01T06:48:01;4.95;;;4.25;;
22567;SDS011;11450;50.818;4.382;2022-08-01T06:50:27;6.47;;;4.55;;
22567;SDS011;11450;50.818;4.382;2022-08-01T06:52:52;5.15;;;4.65;;
22567;SDS011;11450;50.818;4.382;2022-08-01T06:55:18;6.20;;;5.60;;
22567;SDS011;11450;50.818;4.382;2022-08-01T06:57:48;6.32;;;4.53;;
22567;SDS011;11450;50.818;4.382;2022-08-01T07:00:16;5.20;;;4.70;;
22567;SDS011;11450;50.818;4.382;2022-08-01T07:02:45;7.07;;;5.25;;
22567;SDS011;11450;50.818;4.382;2022-08-01T07:05:11;6.68;;;5.43;;
22567;SDS011;11450;50.818;4.382;2022-08-01T07:07:37;10.65;;;5.38;;
22567;SDS011;11450;50.818;4.382;2022-08-01T07:10:03;5.03;;;4.40;;
22567;SDS011;11450;50.818;4.382;2022-08-01T07:12:29;6.85;;;5.20;;
22567;SDS011;11450;50.818;4.382;2022-08-01T07:14:55;7.55;;;5.22;;
22567;SDS011;11450;50.818;4.382;2022-08-01T07:17:21;7.57;;;5.13;;
22567;SDS011;11450;50.818;4.382;2022-08-01T07:19:47;5.65;;;4.55;;
22567;SDS011;11450;50.818;4.382;2022-08-01T07:22:13;6.43;;;5.10;;
22567;SDS011;11450;50.818;4.382;2022-08-01T07:24:41;5.65;;;4.45;;
22567;SDS011;11450;50.818;4.382;2022-08-01T07:27:07;5.90;;;3.90;;
22567;SDS011;11450;50.818;4.382;2022-08-01T07:29:32;4.85;;;4.18;;
22567;SDS011;11450;50.818;4.382;2022-08-01T07:31:58;5.70;;;4.00;;
22567;SDS011;11450;50.818;4.382;2022-08-01T07:34:24;5.22;;;4.32;;
22567;SDS011;11450;50.818;4.382;2022-08-01T07:36:50;6.60;;;4.13;;
22567;SDS011;11450;50.818;4.382;2022-08-01T07:39:16;4.28;;;3.40;;
22567;SDS011;11450;50.818;4.382;2022-08-01T07:41:42;3.65;;;3.33;;
22567;SDS011;11450;50.818;4.382;2022-08-01T07:44:08;4.15;;;3.75;;
22567;SDS011;11450;50.818;4.382;2022-08-01T07:46:34;6.05;;;4.25;;
22567;SDS011;11450;50.818;4.382;2022-08-01T07:48:59;4.75;;;3.70;;
22567;SDS011;11450;50.818;4.382;2022-08-01T07:51:25;4.10;;;3.17;;
22567;SDS011;11450;50.818;4.382;2022-08-01T07:53:51;3.78;;;3.20;;
22567;SDS011;11450;50.818;4.382;2022-08-01T07:56:16;4.50;;;4.10;;
22567;SDS011;11450;50.818;4.382;2022-08-01T07:58:42;5.07;;;4.50;;
22567;SDS011;11450;50.818;4.382;2022-08-01T08:01:08;4.13;;;3.72;;
22567;SDS011;11450;50.818;4.382;2022-08-01T08:03:34;5.35;;;4.32;;
22567;SDS011;11450;50.818;4.382;2022-08-01T08:05:59;5.93;;;4.70;;
22567;SDS011;11450;50.818;4.382;2022-08-01T08:08:25;7.80;;;5.28;;
22567;SDS011;11450;50.818;4.382;2022-08-01T08:10:51;5.18;;;4.68;;
22567;SDS011;11450;50.818;4.382;2022-08-01T08:13:16;6.00;;;4.43;;
22567;SDS011;11450;50.818;4.382;2022-08-01T08:15:42;4.43;;;4.03;;
22567;SDS011;11450;50.818;4.382;2022-08-01T08:18:08;4.28;;;3.63;;
22567;SDS011;11450;50.818;4.382;2022-08-01T08:20:35;3.90;;;3.60;;
22567;SDS011;11450;50.818;4.382;2022-08-01T08:23:01;3.60;;;3.30;;
22567;SDS011;11450;50.818;4.382;2022-08-01T08:25:26;3.13;;;2.92;;
22567;SDS011;11450;50.818;4.382;2022-08-01T08:27:53;4.03;;;3.22;;
22567;SDS011;11450;50.818;4.382;2022-08-01T08:30:24;3.10;;;2.88;;
22567;SDS011;11450;50.818;4.382;2022-08-01T08:32:50;3.53;;;3.22;;
22567;SDS011;11450;50.818;4.382;2022-08-01T08:35:15;3.20;;;2.90;;
22567;SDS011;11450;50.818;4.382;2022-08-01T08:37:41;4.53;;;2.55;;
22567;SDS011;11450;50.818;4.382;2022-08-01T08:40:07;2.75;;;2.45;;
22567;SDS011;11450;50.818;4.382;2022-08-01T08:42:34;4.60;;;3.50;;
22567;SDS011;11450;50.818;4.382;2022-08-01T08:45:00;2.83;;;1.83;;
22567;SDS011;11450;50.818;4.382;2022-08-01T08:47:28;2.63;;;2.22;;
22567;SDS011;11450;50.818;4.382;2022-08-01T08:49:57;2.53;;;2.33;;
22567;SDS011;11450;50.818;4.382;2022-08-01T08:52:24;6.28;;;2.13;;
22567;SDS011;11450;50.818;4.382;2022-08-01T08:54:51;2.45;;;1.63;;
22567;SDS011;11450;50.818;4.382;2022-08-01T08:57:18;2.50;;;2.00;;
22567;SDS011;11450;50.818;4.382;2022-08-01T08:59:45;3.67;;;2.00;;
22567;SDS011;11450;50.818;4.382;2022-08-01T09:02:12;3.03;;;1.70;;
22567;SDS011;11450;50.818;4.382;2022-08-01T09:04:38;3.30;;;1.75;;
22567;SDS011;11450;50.818;4.382;2022-08-01T09:07:05;1.58;;;1.48;;
22567;SDS011;11450;50.818;4.382;2022-08-01T09:09:33;2.38;;;2.10;;
22567;SDS011;11450;50.818;4.382;2022-08-01T09:11:59;3.25;;;1.70;;
22567;SDS011;11450;50.818;4.382;2022-08-01T09:14:25;1.52;;;1.40;;
22567;SDS011;11450;50.818;4.382;2022-08-01T09:16:59;2.50;;;1.48;;
22567;SDS011;11450;50.818;4.382;2022-08-01T09:19:25;1.98;;;1.27;;
22567;SDS011;11450;50.818;4.382;2022-08-01T09:21:57;2.30;;;1.40;;
22567;SDS011;11450;50.818;4.382;2022-08-01T09:24:24;1.30;;;1.20;;
22567;SDS011;11450;50.818;4.382;2022-08-01T09:26:54;2.20;;;1.33;;
22567;SDS011;11450;50.818;4.382;2022-08-01T09:29:22;1.88;;;1.30;;
22567;SDS011;11450;50.818;4.382;2022-08-01T09:31:49;1.30;;;1.20;;
22567;SDS011;11450;50.818;4.382;2022-08-01T09:34:15;1.73;;;1.48;;
22567;SDS011;11450;50.818;4.382;2022-08-01T09:39:34;1.65;;;1.02;;
22567;SDS011;11450;50.818;4.382;2022-08-01T09:42:28;3.35;;;1.77;;
22567;SDS011;11450;50.818;4.382;2022-08-01T09:44:53;1.40;;;1.30;;
22567;SDS011;11450;50.818;4.382;2022-08-01T09:47:20;2.95;;;1.55;;
22567;SDS011;11450;50.818;4.382;2022-08-01T09:49:52;4.50;;;1.70;;
22567;SDS011;11450;50.818;4.382;2022-08-01T09:52:21;2.00;;;1.27;;
22567;SDS011;11450;50.818;4.382;2022-08-01T09:54:52;1.50;;;1.40;;
22567;SDS011;11450;50.818;4.382;2022-08-01T09:57:19;2.30;;;1.55;;
22567;SDS011;11450;50.818;4.382;2022-08-01T09:59:46;2.80;;;1.60;;
22567;SDS011;11450;50.818;4.382;2022-08-01T10:02:15;2.00;;;1.50;;
22567;SDS011;11450;50.818;4.382;2022-08-01T10:04:58;1.45;;;1.25;;
22567;SDS011;11450;50.818;4.382;2022-08-01T10:07:27;3.53;;;1.30;;
22567;SDS011;11450;50.818;4.382;2022-08-01T10:09:53;1.67;;;1.35;;
22567;SDS011;11450;50.818;4.382;2022-08-01T10:12:19;1.40;;;1.25;;
22567;SDS011;11450;50.818;4.382;2022-08-01T10:14:47;2.58;;;1.50;;
22567;SDS011;11450;50.818;4.382;2022-08-01T10:17:20;5.55;;;1.30;;
22567;SDS011;11450;50.818;4.382;2022-08-01T10:19:49;1.05;;;0.93;;
22567;SDS011;11450;50.818;4.382;2022-08-01T10:22:19;1.40;;;1.10;;
22567;SDS011;11450;50.818;4.382;2022-08-01T10:24:48;1.90;;;1.20;;
22567;SDS011;11450;50.818;4.382;2022-08-01T10:27:17;1.15;;;1.05;;
22567;SDS011;11450;50.818;4.382;2022-08-01T10:29:51;1.58;;;1.08;;
22567;SDS011;11450;50.818;4.382;2022-08-01T10:32:20;1.85;;;1.25;;
22567;SDS011;11450;50.818;4.382;2022-08-01T10:34:46;1.13;;;0.90;;
22567;SDS011;11450;50.818;4.382;2022-08-01T10:37:13;1.00;;;0.90;;
22567;SDS011;11450;50.818;4.382;2022-08-01T10:39:40;2.38;;;0.95;;
22567;SDS011;11450;50.818;4.382;2022-08-01T10:42:05;2.55;;;1.00;;
22567;SDS011;11450;50.818;4.382;2022-08-01T10:44:34;1.88;;;1.30;;
22567;SDS011;11450;50.818;4.382;2022-08-01T10:47:03;1.80;;;0.88;;
22567;SDS011;11450;50.818;4.382;2022-08-01T10:49:47;2.90;;;0.80;;
22567;SDS011;11450;50.818;4.382;2022-08-01T10:52:16;3.17;;;1.40;;
22567;SDS011;11450;50.818;4.382;2022-08-01T10:54:43;2.90;;;0.95;;
22567;SDS011;11450;50.818;4.382;2022-08-01T10:57:09;1.00;;;1.00;;
22567;SDS011;11450;50.818;4.382;2022-08-01T10:59:35;1.77;;;0.85;;
22567;SDS011;11450;50.818;4.382;2022-08-01T11:02:11;1.48;;;0.77;;
22567;SDS011;11450;50.818;4.382;2022-08-01T11:05:00;2.75;;;0.90;;
22567;SDS011;11450;50.818;4.382;2022-08-01T11:07:42;1.20;;;0.70;;
22567;SDS011;11450;50.818;4.382;2022-08-01T11:13:00;2.75;;;0.90;;
22567;SDS011;11450;50.818;4.382;2022-08-01T11:15:28;3.15;;;0.77;;
22567;SDS011;11450;50.818;4.382;2022-08-01T11:17:54;0.98;;;0.70;;
22567;SDS011;11450;50.818;4.382;2022-08-01T11:20:21;2.70;;;0.70;;
22567;SDS011;11450;50.818;4.382;2022-08-01T11:25:23;1.65;;;0.70;;
22567;SDS011;11450;50.818;4.382;2022-08-01T11:28:16;1.35;;;0.75;;
22567;SDS011;11450;50.818;4.382;2022-08-01T11:30:38;2.13;;;0.70;;
22567;SDS011;11450;50.818;4.382;2022-08-01T11:33:04;1.58;;;0.90;;
22567;SDS011;11450;50.818;4.382;2022-08-01T11:35:31;3.08;;;0.95;;
22567;SDS011;11450;50.818;4.382;2022-08-01T11:38:08;1.15;;;0.63;;
22567;SDS011;11450;50.818;4.382;2022-08-01T11:44:00;1.70;;;0.70;;
22567;SDS011;11450;50.818;4.382;2022-08-01T11:49:30;1.13;;;0.50;;
22567;SDS011;11450;50.818;4.382;2022-08-01T11:52:09;0.77;;;0.60;;
22567;SDS011;11450;50.818;4.382;2022-08-01T11:57:18;0.93;;;0.70;;
22567;SDS011;11450;50.818;4.382;2022-08-01T11:59:46;0.98;;;0.73;;
22567;SDS011;11450;50.818;4.382;2022-08-01T12:02:30;0.47;;;0.47;;
22567;SDS011;11450;50.818;4.382;2022-08-01T12:05:05;0.80;;;0.40;;
22567;SDS011;11450;50.818;4.382;2022-08-01T12:07:33;0.75;;;0.60;;
22567;SDS011;11450;50.818;4.382;2022-08-01T12:12:33;1.92;;;0.90;;
22567;SDS011;11450;50.818;4.382;2022-08-01T12:15:05;1.15;;;0.50;;
22567;SDS011;11450;50.818;4.382;2022-08-01T12:17:41;2.55;;;0.60;;
22567;SDS011;11450;50.818;4.382;2022-08-01T12:20:19;1.65;;;0.60;;
22567;SDS011;11450;50.818;4.382;2022-08-01T12:22:46;2.00;;;0.90;;
22567;SDS011;11450;50.818;4.382;2022-08-01T12:25:13;2.00;;;0.60;;
22567;SDS011;11450;50.818;4.382;2022-08-01T12:27:42;2.03;;;0.73;;
22567;SDS011;11450;50.818;4.382;2022-08-01T12:30:10;1.77;;;0.80;;
22567;SDS011;11450;50.818;4.382;2022-08-01T12:32:38;1.13;;;0.52;;
22567;SDS011;11450;50.818;4.382;2022-08-01T12:37:43;1.23;;;0.90;;
22567;SDS011;11450;50.818;4.382;2022-08-01T12:42:45;2.20;;;0.70;;
22567;SDS011;11450;50.818;4.382;2022-08-01T12:45:13;2.35;;;1.20;;
22567;SDS011;11450;50.818;4.382;2022-08-01T12:47:41;0.85;;;0.52;;
22567;SDS011;11450;50.818;4.382;2022-08-01T12:50:09;2.65;;;0.60;;
22567;SDS011;11450;50.818;4.382;2022-08-01T12:52:46;0.60;;;0.60;;
22567;SDS011;11450;50.818;4.382;2022-08-01T12:55:14;1.95;;;0.90;;
22567;SDS011;11450;50.818;4.382;2022-08-01T12:57:44;2.00;;;0.73;;
22567;SDS011;11450;50.818;4.382;2022-08-01T13:02:48;0.77;;;0.68;;
22567;SDS011;11450;50.818;4.382;2022-08-01T13:05:15;1.42;;;0.85;;
22567;SDS011;11450;50.818;4.382;2022-08-01T13:07:48;1.45;;;0.85;;
22567;SDS011;11450;50.818;4.382;2022-08-01T13:10:23;1.08;;;0.70;;
22567;SDS011;11450;50.818;4.382;2022-08-01T13:12:55;2.05;;;0.80;;
22567;SDS011;11450;50.818;4.382;2022-08-01T13:15:24;1.80;;;0.95;;
22567;SDS011;11450;50.818;4.382;2022-08-01T13:17:55;2.50;;;0.85;;
22567;SDS011;11450;50.818;4.382;2022-08-01T13:20:25;1.27;;;0.90;;
22567;SDS011;11450;50.818;4.382;2022-08-01T13:22:52;4.97;;;0.93;;
22567;SDS011;11450;50.818;4.382;2022-08-01T13:25:18;1.65;;;0.80;;
22567;SDS011;11450;50.818;4.382;2022-08-01T13:27:44;2.47;;;1.00;;
22567;SDS011;11450;50.818;4.382;2022-08-01T13:30:10;2.55;;;1.08;;
22567;SDS011;11450;50.818;4.382;2022-08-01T13:32:41;1.00;;;0.63;;
22567;SDS011;11450;50.818;4.382;2022-08-01T13:35:10;1.25;;;0.68;;
22567;SDS011;11450;50.818;4.382;2022-08-01T13:37:37;3.30;;;0.88;;
22567;SDS011;11450;50.818;4.382;2022-08-01T13:40:06;1.55;;;0.80;;
22567;SDS011;11450;50.818;4.382;2022-08-01T13:42:32;1.98;;;1.23;;
22567;SDS011;11450;50.818;4.382;2022-08-01T13:44:58;0.93;;;0.85;;
22567;SDS011;11450;50.818;4.382;2022-08-01T13:47:24;1.55;;;0.93;;
22567;SDS011;11450;50.818;4.382;2022-08-01T13:49:49;2.50;;;0.98;;
22567;SDS011;11450;50.818;4.382;2022-08-01T13:52:15;3.05;;;0.82;;
22567;SDS011;11450;50.818;4.382;2022-08-01T13:54:41;2.28;;;1.55;;
22567;SDS011;11450;50.818;4.382;2022-08-01T13:57:06;1.17;;;1.00;;
22567;SDS011;11450;50.818;4.382;2022-08-01T13:59:33;1.60;;;1.00;;
22567;SDS011;11450;50.818;4.382;2022-08-01T14:02:00;4.00;;;0.93;;
22567;SDS011;11450;50.818;4.382;2022-08-01T14:04:25;1.40;;;0.85;;
22567;SDS011;11450;50.818;4.382;2022-08-01T14:06:51;2.63;;;0.90;;
22567;SDS011;11450;50.818;4.382;2022-08-01T14:09:17;1.50;;;0.68;;
22567;SDS011;11450;50.818;4.382;2022-08-01T14:11:44;0.82;;;0.80;;
22567;SDS011;11450;50.818;4.382;2022-08-01T14:14:10;0.50;;;0.50;;
22567;SDS011;11450;50.818;4.382;2022-08-01T14:16:36;2.88;;;0.95;;
22567;SDS011;11450;50.818;4.382;2022-08-01T14:19:02;1.80;;;0.80;;
22567;SDS011;11450;50.818;4.382;2022-08-01T14:21:28;2.72;;;0.63;;
22567;SDS011;11450;50.818;4.382;2022-08-01T14:23:55;1.27;;;0.70;;
22567;SDS011;11450;50.818;4.382;2022-08-01T14:26:20;1.95;;;0.80;;
22567;SDS011;11450;50.818;4.382;2022-08-01T14:28:46;1.05;;;0.90;;
22567;SDS011;11450;50.818;4.382;2022-08-01T14:31:12;1.42;;;0.88;;
22567;SDS011;11450;50.818;4.382;2022-08-01T14:33:38;1.63;;;0.95;;
22567;SDS011;11450;50.818;4.382;2022-08-01T14:36:06;2.65;;;0.88;;
22567;SDS011;11450;50.818;4.382;2022-08-01T14:38:32;2.80;;;0.70;;
22567;SDS011;11450;50.818;4.382;2022-08-01T14:40:58;1.08;;;0.98;;
22567;SDS011;11450;50.818;4.382;2022-08-01T14:43:24;1.45;;;0.73;;
22567;SDS011;11450;50.818;4.382;2022-08-01T14:45:51;2.85;;;0.80;;
22567;SDS011;11450;50.818;4.382;2022-08-01T14:48:19;1.65;;;1.00;;
22567;SDS011;11450;50.818;4.382;2022-08-01T14:50:45;2.80;;;0.80;;
22567;SDS011;11450;50.818;4.382;2022-08-01T14:53:11;2.80;;;0.88;;
22567;SDS011;11450;50.818;4.382;2022-08-01T14:55:37;1.15;;;0.80;;
22567;SDS011;11450;50.818;4.382;2022-08-01T14:58:03;1.88;;;0.77;;
22567;SDS011;11450;50.818;4.382;2022-08-01T15:00:29;1.45;;;0.80;;
22567;SDS011;11450;50.818;4.382;2022-08-01T15:02:54;1.15;;;0.80;;
22567;SDS011;11450;50.818;4.382;2022-08-01T15:05:20;2.75;;;0.60;;
22567;SDS011;11450;50.818;4.382;2022-08-01T15:07:46;2.13;;;0.88;;
22567;SDS011;11450;50.818;4.382;2022-08-01T15:10:12;1.77;;;1.20;;
22567;SDS011;11450;50.818;4.382;2022-08-01T15:12:38;0.73;;;0.63;;
22567;SDS011;11450;50.818;4.382;2022-08-01T15:15:04;1.00;;;0.90;;
22567;SDS011;11450;50.818;4.382;2022-08-01T15:17:31;2.33;;;0.80;;
22567;SDS011;11450;50.818;4.382;2022-08-01T15:20:03;2.20;;;0.90;;
22567;SDS011;11450;50.818;4.382;2022-08-01T15:22:31;3.10;;;0.80;;
22567;SDS011;11450;50.818;4.382;2022-08-01T15:24:58;1.65;;;1.10;;
22567;SDS011;11450;50.818;4.382;2022-08-01T15:27:25;1.13;;;0.65;;
22567;SDS011;11450;50.818;4.382;2022-08-01T15:29:52;2.83;;;0.90;;
22567;SDS011;11450;50.818;4.382;2022-08-01T15:32:19;0.80;;;0.73;;